Hunter, ND

6:52 PM CST on February 21, 2017 (GMT -0600)
PFS Hunter | | Change Station
Active Advisory: Flood Warning

Elev 974 ft 47.15 °N, 97.21 °W | Updated 2 seconds ago

Overcast
Overcast
40.3 °F
Feels Like 40 °F
N
2.0
Wind Variable Wind from North
Gusts 5.0 mph

Today
High -- | Low -- °F
--% Chance of Precip.
Yesterday
High -- | Low -- °F
Precip. -- in
Pressure 29.70 in
Visibility 10.0 miles
Clouds Few 7500 ft
Mostly Cloudy 9000 ft
Overcast 11000 ft
Windchill 40 °F
Dew Point 37 °F
Humidity 88%
Rainfall 0.00 in
Snow Depth Not available.
7:22 AM 6:02 PM
Waning Crescent, 21% visible
METAR KFAR 212353Z 22003KT 10SM FEW075 BKN090 OVC110 07/04 A2967 RMK AO2 SLP057 T00670044 10089 20061 53005
Pressure 29.70 in
Visibility 10.0 miles
Clouds Few 7500 ft
Mostly Cloudy 9000 ft
Overcast 11000 ft
Windchill 40 °F
Dew Point 37 °F
Humidity 88%
Rainfall 0.00 in
Snow Depth Not available.
7:22 AM 6:02 PM
Waning Crescent, 21% visible
METAR KFAR 212353Z 22003KT 10SM FEW075 BKN090 OVC110 07/04 A2967 RMK AO2 SLP057 T00670044 10089 20061 53005

Get Your Daily Forecast Email!

Thanks for signing up!

Be on the lookout for a verification email in your inbox.

You'll start receiving the daily forecast at 8 AM.

×

10-Day Weather Forecast

Almanac

Astronomy

Feb. 21, 2017 Rise Set
Actual Time
Civil Twilight
Nautical Twilight
Astronomical Twilight
Moon
Length of Visible Light
Length of Day
Tomorrow will be .
, % of the Moon is Illuminated

Today's Extremes

State Highs State Lows

Community

WunderPhotos

Upload Photos

1,962,540 photos uploaded!

WunderBlog® & News

Nearby

Air Quality

  Air Quality AQ Index Pollutant
Not available.

Snow Depth

Station Depth Elevation

Earthquake Activity

City Distance Mag. Time & Date
Minimum magnitude displayed is 2.5.

Coastal Water Temperatures

Place Temperature

Stations

Nearby Weather Stations

Station Location Temp. Windchill Dew Point Humidity Wind Precip. Elev Updated Type
                   

Watches & Warnings

Flood Warning
Issued: 11:07 AM CST Feb. 21, 2017 – National Weather Service

The Flood Warning continues for...
* ... Fargo... on the Red River.
* Until Wednesday March 1... or until the warning is cancelled.
* At 10:15 am Tuesday the stage was 19.8 feet.
* Minor flooding is occurring. During the next 7 days, minor
flooding is forecast.
* Minor flood stage is 18.0 feet.
* Forecast... the river will rise to a crest near 21.5 feet sometime
Thursday mid-morning. The river will fall below flood stage early
next Tuesday morning.
* Impact statement(s) - at 22.0 feet, Fargo... North Broadway bridge
is closed.


Daily 7am CDT/6am CST forecast stage in feet:

date Wed Thu Fri Sat sun Mon Tue
(month/day) 02/22 02/23 02/24 02/25 02/26 02/27 02/28

Red River
Fargo 20.9 21.5 21.5 21.0 20.1 18.9 17.7


Lat... Lon 4715 9673 4724 9683 4724 9694 4676 9689 4677 9671